Home PIREPS Pireps

Flight BEL6067

  • Submitted By: Bert Verkest
  • Departure Airport: Bruxelles National (EBBR)
  • Arrival Airport: Toulouse-Blagnac (LFBO)
  • Aircraft: BAE AVRO RJ1 (OO-DWF)
  • Flight Time: 01.52
  • Date Submitted: 18/12/2017
  • Status: Accepted
Flight Details
Gross Revenue:
(80 load / € 114.00 per unit
€ 9,120.00
Fuel Cost:
(-691 fuel used @ 5.1 / unit)
(€ -3,524.10)

Additional Log Information:

View Log

Aircraft Used in flight is Airbus A319 Brussels Airlines STAR ALLIANCE OO-S
17:10 Brakes are On
17:14 In Air Refuel Suspected
17:33 Brakes are Released
17:35 Brakes are On
17:36 Brakes are Released
17:48 You Took off @ 165 Knots and Flaps at Position 2
Departure Weather
EBBR 181620Z 32006KT 8000 -RA FEW007 BKN021 BKN026 07/04 Q1028 NOSIGrn
17:49 Landing Gear Up @ 181 Knots and 600 Feet
17:50 Below 10000 feet you are not allowed to go over 250 knots
17:50 You exceeded maximum bank angle
17:51 Above FL100 you need to switch of the landing lights
18:41 Paused
18:50 Unpaused
19:00 Landing Gear Down @ 140 Knots and 5430 Feet
19:07 You Landed @ 122 Knots and with -250 Vertical Speed
Arrival Weather
LFBO 181730Z AUTO 31009KT 9999 BKN011 BKN021 BKN049 09/08 Q1023 BECMG NSCrn
19:07 Paused
19:07 Unpaused
19:08 Paused
19:13 Unpaused
19:13 Brakes are On
19:14 Brakes are Released
19:16 Paused
19:16 Brussels Bel-Track1.0.1.2

Route Map

Corporate About Us Our Team Vacancies Information Fleet Route Network Rules and Regulations Operations Flight Schedules Event Center Tours Partners IVAO Vatsim Acars dev FSCB

fb Users Online No pilots online!
0 Pilot(s) and 192 Guest(s) Online
CMS by phpVMS - Design by Crazycreatives.com - Copyright © 2018 - Brussels Airlines Virtual